createdAt,value
2017-12-02T00:02:02.351Z,1.40
2017-12-02T00:04:36.418Z,1.40
2017-12-02T00:07:11.235Z,1.20
2017-12-02T00:09:45.933Z,1.20
2017-12-02T00:12:19.776Z,1.10
2017-12-02T00:14:54.320Z,1.10
2017-12-02T00:17:29.338Z,1.10
2017-12-02T00:20:03.988Z,1.00
2017-12-02T00:22:39.507Z,1.00
2017-12-02T00:25:14.097Z,1.00
2017-12-02T00:27:49.985Z,1.00
2017-12-02T00:30:23.793Z,0.90
2017-12-02T00:32:57.591Z,0.80
2017-12-02T00:35:31.442Z,0.80
2017-12-02T00:38:14.378Z,0.70
2017-12-02T00:40:48.232Z,0.70
2017-12-02T00:43:22.220Z,0.70
2017-12-02T00:45:56.971Z,0.80
2017-12-02T00:48:31.581Z,0.70
2017-12-02T00:51:05.401Z,0.70
2017-12-02T00:53:39.220Z,0.70
2017-12-02T00:56:13.013Z,0.70
2017-12-02T00:58:47.038Z,0.70
2017-12-02T01:01:21.618Z,0.60
2017-12-02T01:03:55.413Z,0.60
2017-12-02T01:06:29.236Z,0.50
2017-12-02T01:09:03.040Z,0.50
2017-12-02T01:11:38.189Z,0.40
2017-12-02T01:14:11.836Z,0.40
2017-12-02T01:16:47.032Z,0.50
2017-12-02T01:19:20.848Z,0.50
2017-12-02T01:21:54.745Z,0.40
2017-12-02T01:24:28.458Z,0.40
2017-12-02T01:27:03.272Z,0.30
2017-12-02T01:29:37.585Z,0.30
2017-12-02T01:32:11.440Z,0.30
2017-12-02T01:34:45.196Z,0.30
2017-12-02T01:37:20.891Z,0.20
2017-12-02T01:39:54.749Z,0.20
2017-12-02T01:42:28.639Z,0.20
2017-12-02T01:45:02.474Z,0.10
2017-12-02T01:47:36.375Z,0.10
2017-12-02T01:50:10.353Z,0.10
2017-12-02T01:52:45.034Z,0.10
2017-12-02T01:55:18.806Z,0.10
2017-12-02T01:57:53.896Z,0.00
2017-12-02T02:00:28.768Z,0.00
2017-12-02T02:03:02.644Z,0.00
2017-12-02T02:05:36.578Z,0.00
2017-12-02T02:08:10.415Z,0.00
2017-12-02T02:10:44.975Z,0.00
2017-12-02T02:13:18.920Z,-0.10
2017-12-02T02:15:52.635Z,0.00
2017-12-02T02:18:26.432Z,-0.10
2017-12-02T02:21:00.244Z,-0.10
2017-12-02T02:23:34.236Z,-0.10
2017-12-02T02:26:09.168Z,-0.20
2017-12-02T02:28:42.989Z,-0.20
2017-12-02T02:31:16.820Z,-0.20
2017-12-02T02:33:50.856Z,-0.20
2017-12-02T02:36:25.482Z,0.00
2017-12-02T02:39:03.383Z,-0.10
2017-12-02T02:41:37.941Z,0.00
2017-12-02T02:44:15.888Z,0.00
2017-12-02T02:46:49.796Z,0.00
2017-12-02T02:49:26.629Z,0.00
2017-12-02T02:52:00.614Z,0.00
2017-12-02T02:54:34.388Z,0.00
2017-12-02T02:57:08.231Z,-0.10
2017-12-02T02:59:42.008Z,0.00
2017-12-02T03:02:16.216Z,-0.20
2017-12-02T03:04:50.013Z,-0.30
2017-12-02T03:07:24.786Z,-0.40
2017-12-02T03:09:58.579Z,-0.40
2017-12-02T03:12:32.499Z,-0.40
2017-12-02T03:15:06.271Z,-0.50
2017-12-02T03:17:42.862Z,-0.50
2017-12-02T03:20:16.769Z,-0.50
2017-12-02T03:22:54.642Z,-0.40
2017-12-02T03:25:33.168Z,-0.50
2017-12-02T03:28:08.113Z,-0.50
2017-12-02T03:30:47.711Z,-0.50
2017-12-02T03:33:22.501Z,-0.50
2017-12-02T03:36:00.865Z,-0.50
2017-12-02T03:38:34.649Z,-0.50
2017-12-02T03:41:08.508Z,-0.50
2017-12-02T03:43:43.107Z,-0.60
2017-12-02T03:46:25.783Z,-0.60
2017-12-02T03:48:59.682Z,-0.60
2017-12-02T03:51:34.397Z,-0.70
2017-12-02T03:54:13.286Z,-0.60
2017-12-02T03:56:48.132Z,-0.50
2017-12-02T03:59:24.063Z,-0.40
2017-12-02T04:01:58.996Z,-0.40
2017-12-02T04:04:32.829Z,-0.40
2017-12-02T04:07:07.626Z,-0.50
2017-12-02T04:09:41.423Z,-0.50
2017-12-02T04:12:22.508Z,-0.50
2017-12-02T04:14:56.259Z,-0.60
2017-12-02T04:17:31.175Z,-0.60
2017-12-02T04:20:05.121Z,-0.70
2017-12-02T04:22:40.104Z,-0.70
2017-12-02T04:25:13.925Z,-0.80
2017-12-02T04:27:47.833Z,-0.80
2017-12-02T04:30:22.404Z,-0.80
2017-12-02T04:32:56.349Z,-0.80
2017-12-02T04:35:30.162Z,-0.80
2017-12-02T04:38:08.227Z,-0.80
2017-12-02T04:40:42.026Z,-0.80
2017-12-02T04:43:16.673Z,-0.90
2017-12-02T04:45:50.659Z,-0.90
2017-12-02T04:48:24.581Z,-0.90
2017-12-02T04:50:59.279Z,-0.90
2017-12-02T04:53:36.792Z,-1.00
2017-12-02T04:56:10.452Z,-1.10
2017-12-02T04:58:55.237Z,-1.00
2017-12-02T05:01:29.220Z,-1.00
2017-12-02T05:04:03.746Z,-1.00
2017-12-02T05:06:37.682Z,-1.00
2017-12-02T05:09:11.634Z,-1.00
2017-12-02T05:11:51.073Z,-1.10
2017-12-02T05:14:26.275Z,-1.00
2017-12-02T05:17:11.539Z,-0.90
2017-12-02T05:19:45.476Z,-0.80
2017-12-02T05:22:25.126Z,-0.70
2017-12-02T05:25:01.215Z,-0.60
2017-12-02T05:27:37.694Z,-0.60
2017-12-02T05:30:12.251Z,-0.50
2017-12-02T05:32:48.998Z,-0.40
2017-12-02T05:35:22.902Z,-0.50
2017-12-02T05:37:57.724Z,-0.30
2017-12-02T05:40:34.932Z,-0.30
2017-12-02T05:43:08.716Z,-0.40
2017-12-02T05:45:43.327Z,-0.40
2017-12-02T05:48:17.969Z,-0.50
2017-12-02T05:50:54.016Z,-0.50
2017-12-02T05:53:27.895Z,-0.40
2017-12-02T05:56:02.700Z,-0.40
2017-12-02T05:58:36.541Z,-0.40
2017-12-02T06:01:10.501Z,-0.50
2017-12-02T06:03:44.360Z,-0.50
2017-12-02T06:06:18.860Z,-0.30
2017-12-02T06:08:52.584Z,-0.30
2017-12-02T06:11:26.438Z,-0.30
2017-12-02T06:14:03.680Z,-0.40
2017-12-02T06:16:37.816Z,-0.40
2017-12-02T06:19:12.736Z,-0.30
2017-12-02T06:21:46.679Z,-0.40
2017-12-02T06:24:20.444Z,-0.50
2017-12-02T06:26:55.030Z,-0.50
2017-12-02T06:29:28.763Z,-0.50
2017-12-02T06:32:02.661Z,-0.50
2017-12-02T06:34:37.571Z,-0.50
2017-12-02T06:37:12.281Z,-0.50
2017-12-02T06:39:46.031Z,-0.50
2017-12-02T06:42:19.886Z,-0.40
2017-12-02T06:44:54.805Z,-0.20
2017-12-02T06:47:28.712Z,-0.20
2017-12-02T06:50:02.780Z,-0.30
2017-12-02T06:52:36.815Z,-0.40
2017-12-02T06:55:10.497Z,-0.50
2017-12-02T06:57:46.055Z,-0.50
2017-12-02T07:00:20.555Z,-0.40
2017-12-02T07:02:55.362Z,-0.40
2017-12-02T07:05:29.168Z,-0.30
2017-12-02T07:08:06.439Z,-0.20
2017-12-02T07:10:41.412Z,-0.20
2017-12-02T07:13:15.165Z,0.00
2017-12-02T07:15:49.737Z,0.00
2017-12-02T07:18:23.618Z,0.00
2017-12-02T07:20:58.289Z,0.00
2017-12-02T07:23:32.203Z,0.00
2017-12-02T07:26:09.372Z,0.10
2017-12-02T07:28:43.362Z,0.10
2017-12-02T07:31:22.897Z,0.10
2017-12-02T07:33:57.590Z,0.10
2017-12-02T07:36:36.474Z,0.10
2017-12-02T07:39:10.529Z,0.10
2017-12-02T07:41:44.264Z,0.20
2017-12-02T07:44:18.095Z,0.20
2017-12-02T07:46:51.948Z,0.20
2017-12-02T07:49:25.780Z,0.20
2017-12-02T07:52:00.531Z,0.30
2017-12-02T07:54:34.333Z,0.40
2017-12-02T07:57:08.908Z,0.50
2017-12-02T07:59:42.683Z,0.50
2017-12-02T08:02:17.362Z,0.50
2017-12-02T08:04:51.104Z,0.60
2017-12-02T08:07:24.780Z,0.60
2017-12-02T08:09:58.991Z,0.60
2017-12-02T08:12:34.592Z,0.70
2017-12-02T08:15:08.340Z,0.60
2017-12-02T08:17:43.217Z,0.70
2017-12-02T08:20:17.757Z,0.70
2017-12-02T08:22:51.633Z,0.70
2017-12-02T08:25:26.293Z,0.70
2017-12-02T08:28:01.260Z,0.70
2017-12-02T08:30:35.040Z,0.60
2017-12-02T08:33:08.823Z,0.70
2017-12-02T08:35:42.856Z,0.80
2017-12-02T08:38:16.700Z,0.80
2017-12-02T08:40:51.784Z,0.70
2017-12-02T08:43:25.933Z,0.70
2017-12-02T08:46:00.635Z,0.70
2017-12-02T08:48:34.404Z,0.70
2017-12-02T08:51:09.492Z,0.80
2017-12-02T08:53:43.364Z,0.80
2017-12-02T08:56:17.942Z,0.90
2017-12-02T08:58:52.613Z,1.00
2017-12-02T09:01:26.305Z,1.00
2017-12-02T09:04:01.475Z,1.00
2017-12-02T09:06:36.274Z,1.00
2017-12-02T09:09:11.051Z,1.00
2017-12-02T09:11:45.977Z,0.90
2017-12-02T09:14:19.780Z,0.90
2017-12-02T09:16:54.575Z,1.00
2017-12-02T09:19:28.369Z,1.00
2017-12-02T09:22:08.323Z,1.00
2017-12-02T09:24:43.015Z,1.00
2017-12-02T09:27:20.028Z,1.00
2017-12-02T09:29:53.800Z,1.10
2017-12-02T09:32:29.464Z,1.30
2017-12-02T09:35:05.333Z,1.30
2017-12-02T09:37:39.124Z,1.30
2017-12-02T09:40:14.083Z,1.40
2017-12-02T09:42:47.872Z,1.50
2017-12-02T09:45:23.850Z,1.40
2017-12-02T09:48:00.416Z,1.50
2017-12-02T09:50:36.228Z,1.50
2017-12-02T09:53:11.201Z,1.50
2017-12-02T09:55:45.023Z,1.50
2017-12-02T09:58:37.017Z,1.50
2017-12-02T10:01:10.857Z,1.50
2017-12-02T10:03:45.673Z,1.50
2017-12-02T10:06:19.496Z,1.50
2017-12-02T10:08:54.108Z,1.60
2017-12-02T10:11:28.193Z,1.60
2017-12-02T10:14:03.044Z,1.50
2017-12-02T10:16:36.959Z,1.50
2017-12-02T10:19:11.981Z,1.40
2017-12-02T10:21:46.188Z,1.40
2017-12-02T10:24:21.673Z,1.40
2017-12-02T10:26:55.531Z,1.40
2017-12-02T10:29:39.747Z,1.30
2017-12-02T10:32:13.600Z,1.40
2017-12-02T10:34:48.260Z,1.30
2017-12-02T10:37:21.973Z,1.30
2017-12-02T10:40:04.982Z,1.40
2017-12-02T10:42:40.956Z,1.40
2017-12-02T10:45:15.516Z,1.40
2017-12-02T10:47:49.436Z,1.40
2017-12-02T10:50:23.168Z,1.40
2017-12-02T10:53:01.116Z,1.40
2017-12-02T10:55:35.002Z,1.60
2017-12-02T10:58:10.905Z,1.80
2017-12-02T11:00:44.707Z,1.90
2017-12-02T11:03:20.181Z,1.90
2017-12-02T11:05:54.002Z,1.70
2017-12-02T11:08:29.226Z,1.70
2017-12-02T11:11:05.759Z,1.60
2017-12-02T11:13:41.371Z,1.60
2017-12-02T11:16:15.460Z,1.60
2017-12-02T11:18:50.778Z,1.60
2017-12-02T11:21:24.830Z,1.60
2017-12-02T11:24:00.801Z,1.70
2017-12-02T11:26:34.709Z,1.70
2017-12-02T11:29:08.920Z,1.70
2017-12-02T11:31:49.331Z,1.70
2017-12-02T11:34:26.608Z,1.70
2017-12-02T11:37:00.967Z,1.60
2017-12-02T11:39:36.737Z,1.60
2017-12-02T11:42:10.596Z,1.60
2017-12-02T11:45:06.930Z,1.80
2017-12-02T11:47:41.382Z,1.90
2017-12-02T11:50:17.083Z,1.80
2017-12-02T11:52:50.824Z,1.90
2017-12-02T11:55:30.422Z,1.90
2017-12-02T11:58:04.192Z,1.90
2017-12-02T12:00:38.134Z,2.00
2017-12-02T12:03:12.890Z,2.10
2017-12-02T12:05:46.772Z,2.10
2017-12-02T12:08:20.580Z,2.00
2017-12-02T12:10:57.232Z,2.00
2017-12-02T12:13:30.932Z,2.00
2017-12-02T12:16:16.292Z,2.00
2017-12-02T12:18:50.365Z,2.10
2017-12-02T12:21:24.333Z,2.10
2017-12-02T12:23:58.232Z,2.10
2017-12-02T12:26:32.139Z,2.20
2017-12-02T12:29:06.026Z,2.20
2017-12-02T12:31:40.955Z,2.20
2017-12-02T12:34:15.081Z,2.20
2017-12-02T12:36:49.887Z,2.20
2017-12-02T12:39:23.744Z,2.10
2017-12-02T12:41:57.607Z,2.20
2017-12-02T12:44:31.375Z,2.30
2017-12-02T12:47:05.328Z,2.30
2017-12-02T12:49:40.271Z,2.40
2017-12-02T12:52:14.778Z,2.40
2017-12-02T12:54:48.705Z,2.40
2017-12-02T12:57:23.203Z,2.30
2017-12-02T12:59:57.744Z,2.40
2017-12-02T13:02:31.549Z,2.40
2017-12-02T13:05:06.486Z,2.40
2017-12-02T13:07:41.819Z,2.30
2017-12-02T13:10:17.523Z,2.40
2017-12-02T13:12:51.295Z,2.40
2017-12-02T13:15:25.333Z,2.40
2017-12-02T13:17:59.202Z,2.40
2017-12-02T13:20:34.733Z,2.40
2017-12-02T13:23:08.633Z,2.40
2017-12-02T13:25:42.528Z,2.40
2017-12-02T13:28:16.293Z,2.40
2017-12-02T13:30:50.163Z,2.40
2017-12-02T13:33:23.959Z,2.50
2017-12-02T13:36:00.773Z,2.40
2017-12-02T13:38:34.589Z,2.40
2017-12-02T13:41:08.446Z,2.40
2017-12-02T13:43:42.959Z,2.30
2017-12-02T13:46:16.863Z,2.30
2017-12-02T13:48:51.477Z,2.20
2017-12-02T13:51:28.064Z,2.20
2017-12-02T13:54:02.654Z,2.30
2017-12-02T13:56:36.526Z,2.20
2017-12-02T13:59:10.261Z,2.40
2017-12-02T14:01:44.191Z,2.50
2017-12-02T14:04:18.104Z,2.50
2017-12-02T14:06:51.992Z,2.40
2017-12-02T14:09:26.943Z,2.30
2017-12-02T14:12:00.758Z,2.20
2017-12-02T14:14:34.665Z,2.20
2017-12-02T14:17:09.358Z,2.20
2017-12-02T14:19:44.250Z,2.10
2017-12-02T14:22:18.837Z,2.10
2017-12-02T14:24:52.733Z,2.10
2017-12-02T14:27:32.155Z,2.20
2017-12-02T14:30:06.710Z,2.20
2017-12-02T14:32:40.564Z,2.10
2017-12-02T14:35:14.680Z,2.20
2017-12-02T14:37:50.099Z,2.30
2017-12-02T14:40:24.138Z,2.30
2017-12-02T14:42:57.968Z,2.30
2017-12-02T14:45:32.568Z,2.30
2017-12-02T14:48:06.506Z,2.20
2017-12-02T14:50:40.271Z,2.00
2017-12-02T14:53:14.181Z,2.10
2017-12-02T14:55:47.975Z,2.10
2017-12-02T14:58:22.015Z,2.10
2017-12-02T15:00:55.938Z,2.10
2017-12-02T15:03:30.431Z,1.90
2017-12-02T15:06:06.141Z,1.90
2017-12-02T15:08:39.927Z,1.90
2017-12-02T15:11:14.831Z,1.90
2017-12-02T15:13:49.339Z,1.90
2017-12-02T15:16:23.985Z,1.90
2017-12-02T15:18:57.673Z,1.90
2017-12-02T15:21:32.618Z,1.90
2017-12-02T15:24:07.620Z,1.90
2017-12-02T15:26:41.440Z,1.90
2017-12-02T15:29:17.376Z,2.00
2017-12-02T15:31:51.227Z,1.90
2017-12-02T15:34:27.416Z,1.90
2017-12-02T15:37:01.303Z,1.80
2017-12-02T15:39:36.076Z,1.90
2017-12-02T15:42:09.815Z,1.90
2017-12-02T15:44:44.726Z,1.90
2017-12-02T15:47:20.160Z,2.00
2017-12-02T15:49:55.034Z,2.00
2017-12-02T15:52:28.896Z,1.90
2017-12-02T15:55:03.571Z,2.00
2017-12-02T15:57:38.275Z,1.90
2017-12-02T16:00:14.961Z,2.00
2017-12-02T16:02:48.648Z,2.00
2017-12-02T16:05:24.065Z,2.00
2017-12-02T16:07:58.464Z,2.00
2017-12-02T16:10:32.304Z,2.00
2017-12-02T16:13:06.096Z,2.10
2017-12-02T16:15:40.019Z,2.00
2017-12-02T16:18:14.677Z,1.80
2017-12-02T16:20:49.637Z,1.80
2017-12-02T16:23:23.541Z,1.80
2017-12-02T16:25:57.372Z,1.80
2017-12-02T16:28:31.176Z,1.80
2017-12-02T16:31:05.932Z,1.60
2017-12-02T16:33:40.499Z,1.50
2017-12-02T16:36:14.461Z,1.40
2017-12-02T16:38:48.286Z,1.40
2017-12-02T16:41:22.358Z,1.40
2017-12-02T16:43:56.111Z,1.40
2017-12-02T16:46:29.949Z,1.50
2017-12-02T16:49:03.806Z,1.50
2017-12-02T16:51:37.784Z,1.50
2017-12-02T16:54:12.288Z,1.50
2017-12-02T16:56:47.024Z,1.50
2017-12-02T16:59:20.713Z,1.50
2017-12-02T17:01:54.972Z,1.40
2017-12-02T17:04:28.784Z,1.50
2017-12-02T17:07:03.368Z,1.50
2017-12-02T17:09:37.947Z,1.50
2017-12-02T17:12:11.912Z,1.50
2017-12-02T17:14:45.696Z,1.60
2017-12-02T17:17:20.427Z,1.60
2017-12-02T17:19:54.152Z,1.60
2017-12-02T17:22:28.056Z,1.50
2017-12-02T17:25:03.686Z,1.50
2017-12-02T17:27:40.886Z,1.50
2017-12-02T17:30:14.557Z,1.60
2017-12-02T17:32:50.068Z,1.50
2017-12-02T17:35:24.002Z,1.50
2017-12-02T17:37:57.836Z,1.50
2017-12-02T17:40:31.646Z,1.50
2017-12-02T17:43:05.406Z,1.60
2017-12-02T17:45:39.341Z,1.60
2017-12-02T17:48:13.167Z,1.50
2017-12-02T17:50:48.824Z,1.50
2017-12-02T17:53:22.701Z,1.50
2017-12-02T17:55:57.276Z,1.50
2017-12-02T17:58:31.825Z,1.50
2017-12-02T18:01:05.768Z,1.50
2017-12-02T18:03:43.404Z,1.40
2017-12-02T18:06:17.269Z,1.40
2017-12-02T18:08:51.746Z,1.50
2017-12-02T18:11:26.437Z,1.40
2017-12-02T18:14:00.415Z,1.50
2017-12-02T18:16:35.140Z,1.40
2017-12-02T18:19:09.033Z,1.40
2017-12-02T18:21:42.869Z,1.40
2017-12-02T18:24:16.711Z,1.30
2017-12-02T18:26:51.413Z,1.30
2017-12-02T18:29:25.176Z,1.30
2017-12-02T18:31:58.985Z,1.30
2017-12-02T18:34:33.720Z,1.20
2017-12-02T18:37:07.697Z,1.20
2017-12-02T18:39:41.631Z,1.10
2017-12-02T18:42:15.284Z,1.10
2017-12-02T18:44:50.215Z,1.20
2017-12-02T18:47:24.122Z,1.10
2017-12-02T18:49:59.083Z,1.20
2017-12-02T18:52:32.889Z,1.30
2017-12-02T18:55:06.712Z,1.30
2017-12-02T18:57:41.187Z,1.40
2017-12-02T19:00:17.192Z,1.40
2017-12-02T19:02:51.132Z,1.30
2017-12-02T19:05:26.061Z,1.30
2017-12-02T19:08:01.440Z,1.30
2017-12-02T19:10:37.072Z,1.30
2017-12-02T19:13:10.872Z,1.30
2017-12-02T19:15:44.866Z,1.30
2017-12-02T19:18:18.757Z,1.30
2017-12-02T20:04:45.931Z,1.30
2017-12-02T20:07:20.552Z,1.40
2017-12-02T20:09:54.361Z,1.30
2017-12-02T20:12:28.353Z,1.40
2017-12-02T20:15:02.071Z,1.50
2017-12-02T20:17:35.930Z,1.60
2017-12-02T20:20:10.593Z,1.50
2017-12-02T20:22:44.490Z,1.50
2017-12-02T20:25:18.272Z,1.50
2017-12-02T20:27:52.216Z,1.50
2017-12-02T20:30:26.061Z,1.50
2017-12-02T20:33:00.822Z,1.50
2017-12-02T20:35:34.730Z,1.50
2017-12-02T20:38:08.629Z,1.50
2017-12-02T20:40:43.354Z,1.40
2017-12-02T20:43:18.770Z,1.40
2017-12-02T20:45:52.683Z,1.40
2017-12-02T20:48:26.544Z,1.40
2017-12-02T20:51:00.376Z,1.40
2017-12-02T20:53:35.383Z,1.40
2017-12-02T20:56:09.877Z,1.50
2017-12-02T20:58:45.604Z,1.50
2017-12-02T21:01:20.287Z,1.40
2017-12-02T21:03:54.133Z,1.40
2017-12-02T21:06:29.050Z,1.50
2017-12-02T21:09:04.911Z,1.60
2017-12-02T21:11:38.689Z,1.60
2017-12-02T21:14:13.368Z,1.60
2017-12-02T21:16:48.697Z,1.60
2017-12-02T21:19:23.370Z,1.60
2017-12-02T21:21:57.987Z,1.60
2017-12-02T21:24:31.847Z,1.60
2017-12-02T21:27:05.607Z,1.50
2017-12-02T21:29:39.580Z,1.40
2017-12-02T21:32:13.391Z,1.40
2017-12-02T21:34:47.991Z,1.40
2017-12-02T21:37:21.925Z,1.40
2017-12-02T21:39:56.806Z,1.40
2017-12-02T21:42:30.746Z,1.40
2017-12-02T21:45:05.355Z,1.40
2017-12-02T21:47:40.201Z,1.30
2017-12-02T21:50:14.088Z,1.30
2017-12-02T21:52:48.032Z,1.40
2017-12-02T21:55:21.846Z,1.40
2017-12-02T21:57:57.404Z,1.50
2017-12-02T22:00:31.175Z,1.50
2017-12-02T22:03:04.981Z,1.50
2017-12-02T22:05:38.814Z,1.50
2017-12-02T22:08:13.736Z,1.40
2017-12-02T22:10:48.339Z,1.50
2017-12-02T22:13:25.855Z,1.40
2017-12-02T22:15:59.504Z,1.40
2017-12-02T22:18:38.274Z,1.40
2017-12-02T22:21:13.060Z,1.30
2017-12-02T22:23:46.912Z,1.30
2017-12-02T22:26:20.768Z,1.30
2017-12-02T22:28:55.319Z,1.30
2017-12-02T22:31:30.223Z,1.30
2017-12-02T22:34:04.576Z,1.30
2017-12-02T22:36:39.571Z,1.20
2017-12-02T22:39:13.387Z,1.20
2017-12-02T22:41:47.189Z,1.10
2017-12-02T22:44:22.754Z,1.10
2017-12-02T22:46:56.620Z,1.10
2017-12-02T22:49:30.445Z,1.10
2017-12-02T22:52:04.277Z,1.20
2017-12-02T22:54:39.115Z,1.30
2017-12-02T22:57:12.789Z,1.40
2017-12-02T22:59:47.323Z,1.40
2017-12-02T23:02:21.144Z,1.40
2017-12-02T23:04:55.692Z,1.30
2017-12-02T23:07:29.500Z,1.30
2017-12-02T23:10:04.352Z,1.20
2017-12-02T23:12:38.201Z,1.20
2017-12-02T23:15:12.351Z,1.20
2017-12-02T23:17:46.983Z,1.20
2017-12-02T23:23:01.396Z,1.20
2017-12-02T23:25:39.965Z,1.20
2017-12-02T23:28:14.520Z,1.20
2017-12-02T23:30:49.505Z,1.20
2017-12-02T23:33:25.224Z,1.30
2017-12-02T23:35:59.196Z,1.20
2017-12-02T23:38:34.298Z,1.20
2017-12-02T23:41:08.148Z,1.30
2017-12-02T23:43:43.092Z,1.30
2017-12-02T23:46:16.741Z,1.40
2017-12-02T23:48:52.025Z,1.20
2017-12-02T23:51:26.639Z,1.20
2017-12-02T23:54:00.443Z,1.20
2017-12-02T23:56:34.349Z,1.20
2017-12-02T23:59:10.181Z,1.10
